sensor_id;sensor_type;location;lat;lon;timestamp;temperature;humidity
76838;DHT22;65797;47.352;8.164;2023-02-26T00:00:37;1.50;99.90
76838;DHT22;65797;47.352;8.164;2023-02-26T00:03:02;1.50;99.90
76838;DHT22;65797;47.352;8.164;2023-02-26T00:05:28;1.50;99.90
76838;DHT22;65797;47.352;8.164;2023-02-26T00:07:54;1.50;99.90
76838;DHT22;65797;47.352;8.164;2023-02-26T00:10:19;1.50;99.90
76838;DHT22;65797;47.352;8.164;2023-02-26T00:12:45;1.50;99.90
76838;DHT22;65797;47.352;8.164;2023-02-26T00:15:11;1.50;99.90
76838;DHT22;65797;47.352;8.164;2023-02-26T00:18:01;1.50;99.90
76838;DHT22;65797;47.352;8.164;2023-02-26T00:20:28;1.50;99.90
76838;DHT22;65797;47.352;8.164;2023-02-26T00:22:54;1.40;99.90
76838;DHT22;65797;47.352;8.164;2023-02-26T00:25:19;1.50;99.90
76838;DHT22;65797;47.352;8.164;2023-02-26T00:27:45;1.50;99.90
76838;DHT22;65797;47.352;8.164;2023-02-26T00:30:11;1.40;99.90
76838;DHT22;65797;47.352;8.164;2023-02-26T00:32:38;1.40;99.90
76838;DHT22;65797;47.352;8.164;2023-02-26T00:35:12;1.40;99.90
76838;DHT22;65797;47.352;8.164;2023-02-26T00:37:58;1.50;99.90
76838;DHT22;65797;47.352;8.164;2023-02-26T00:43:01;1.50;99.90
76838;DHT22;65797;47.352;8.164;2023-02-26T00:45:27;1.40;99.90
76838;DHT22;65797;47.352;8.164;2023-02-26T00:50:46;1.40;99.90
76838;DHT22;65797;47.352;8.164;2023-02-26T00:53:33;1.40;99.90
76838;DHT22;65797;47.352;8.164;2023-02-26T00:56:00;1.40;99.90
76838;DHT22;65797;47.352;8.164;2023-02-26T00:58:26;1.40;99.90
76838;DHT22;65797;47.352;8.164;2023-02-26T01:00:51;1.40;99.90
76838;DHT22;65797;47.352;8.164;2023-02-26T01:03:17;1.40;99.90
76838;DHT22;65797;47.352;8.164;2023-02-26T01:05:43;1.40;99.90
76838;DHT22;65797;47.352;8.164;2023-02-26T01:08:30;1.40;99.90
76838;DHT22;65797;47.352;8.164;2023-02-26T01:10:59;1.40;99.90
76838;DHT22;65797;47.352;8.164;2023-02-26T01:13:25;1.30;99.90
76838;DHT22;65797;47.352;8.164;2023-02-26T01:15:56;1.30;99.90
76838;DHT22;65797;47.352;8.164;2023-02-26T01:18:40;1.30;99.90
76838;DHT22;65797;47.352;8.164;2023-02-26T01:21:10;1.30;99.90
76838;DHT22;65797;47.352;8.164;2023-02-26T01:23:44;1.30;99.90
76838;DHT22;65797;47.352;8.164;2023-02-26T01:26:36;1.20;99.90
76838;DHT22;65797;47.352;8.164;2023-02-26T01:29:02;1.20;99.90
76838;DHT22;65797;47.352;8.164;2023-02-26T01:31:43;1.20;99.90
76838;DHT22;65797;47.352;8.164;2023-02-26T01:34:17;1.20;99.90
76838;DHT22;65797;47.352;8.164;2023-02-26T01:36:51;1.20;99.90
76838;DHT22;65797;47.352;8.164;2023-02-26T01:39:27;1.10;99.90
76838;DHT22;65797;47.352;8.164;2023-02-26T01:42:03;1.10;99.90
76838;DHT22;65797;47.352;8.164;2023-02-26T01:44:53;1.10;99.90
76838;DHT22;65797;47.352;8.164;2023-02-26T01:48:00;1.00;99.90
76838;DHT22;65797;47.352;8.164;2023-02-26T01:50:28;1.00;99.90
76838;DHT22;65797;47.352;8.164;2023-02-26T01:53:22;0.90;99.90
76838;DHT22;65797;47.352;8.164;2023-02-26T01:55:54;0.90;99.90
76838;DHT22;65797;47.352;8.164;2023-02-26T01:58:21;0.90;99.90
76838;DHT22;65797;47.352;8.164;2023-02-26T02:00:48;0.90;99.90
76838;DHT22;65797;47.352;8.164;2023-02-26T02:03:14;0.90;99.90
76838;DHT22;65797;47.352;8.164;2023-02-26T02:05:55;0.80;99.90
76838;DHT22;65797;47.352;8.164;2023-02-26T02:08:23;0.90;99.90
76838;DHT22;65797;47.352;8.164;2023-02-26T02:10:50;0.80;99.90
76838;DHT22;65797;47.352;8.164;2023-02-26T02:15:54;0.70;99.90
76838;DHT22;65797;47.352;8.164;2023-02-26T02:27:00;0.60;99.90
76838;DHT22;65797;47.352;8.164;2023-02-26T02:32:21;0.50;99.90
76838;DHT22;65797;47.352;8.164;2023-02-26T02:34:56;0.50;99.90
76838;DHT22;65797;47.352;8.164;2023-02-26T02:37:35;0.40;99.90
76838;DHT22;65797;47.352;8.164;2023-02-26T02:40:03;0.40;99.90
76838;DHT22;65797;47.352;8.164;2023-02-26T02:42:46;0.40;99.90
76838;DHT22;65797;47.352;8.164;2023-02-26T02:45:39;0.30;99.90
76838;DHT22;65797;47.352;8.164;2023-02-26T02:48:20;0.20;99.90
76838;DHT22;65797;47.352;8.164;2023-02-26T02:50:54;0.20;99.90
76838;DHT22;65797;47.352;8.164;2023-02-26T02:53:29;0.20;99.90
76838;DHT22;65797;47.352;8.164;2023-02-26T02:58:33;0.10;99.90
76838;DHT22;65797;47.352;8.164;2023-02-26T03:01:05;0.00;99.90
76838;DHT22;65797;47.352;8.164;2023-02-26T03:06:07;0.10;99.90
76838;DHT22;65797;47.352;8.164;2023-02-26T03:08:39;0.00;99.90
76838;DHT22;65797;47.352;8.164;2023-02-26T03:11:08;0.00;99.90
76838;DHT22;65797;47.352;8.164;2023-02-26T03:13:34;0.00;99.90
76838;DHT22;65797;47.352;8.164;2023-02-26T03:21:34;0.00;99.90
76838;DHT22;65797;47.352;8.164;2023-02-26T03:24:09;0.00;99.90
76838;DHT22;65797;47.352;8.164;2023-02-26T03:26:59;0.00;99.90
76838;DHT22;65797;47.352;8.164;2023-02-26T03:29:32;-0.10;99.90
76838;DHT22;65797;47.352;8.164;2023-02-26T03:32:13;-0.10;99.90
76838;DHT22;65797;47.352;8.164;2023-02-26T03:34:49;-0.10;99.90
76838;DHT22;65797;47.352;8.164;2023-02-26T03:39:59;-0.10;99.90
76838;DHT22;65797;47.352;8.164;2023-02-26T03:42:43;-0.10;99.90
76838;DHT22;65797;47.352;8.164;2023-02-26T03:45:16;-0.20;99.90
76838;DHT22;65797;47.352;8.164;2023-02-26T03:47:45;-0.20;99.90
76838;DHT22;65797;47.352;8.164;2023-02-26T03:50:21;-0.20;99.90
76838;DHT22;65797;47.352;8.164;2023-02-26T03:52:50;-0.20;99.90
76838;DHT22;65797;47.352;8.164;2023-02-26T03:55:27;-0.20;99.90
76838;DHT22;65797;47.352;8.164;2023-02-26T03:57:55;-0.20;99.90
76838;DHT22;65797;47.352;8.164;2023-02-26T04:00:21;-0.20;99.90
76838;DHT22;65797;47.352;8.164;2023-02-26T04:02:58;-0.20;99.90
76838;DHT22;65797;47.352;8.164;2023-02-26T04:05:47;-0.20;99.90
76838;DHT22;65797;47.352;8.164;2023-02-26T04:08:14;-0.20;99.90
76838;DHT22;65797;47.352;8.164;2023-02-26T04:11:07;-0.20;99.90
76838;DHT22;65797;47.352;8.164;2023-02-26T04:13:34;-0.30;99.90
76838;DHT22;65797;47.352;8.164;2023-02-26T04:15:59;-0.30;99.90
76838;DHT22;65797;47.352;8.164;2023-02-26T04:18:26;-0.30;99.90
76838;DHT22;65797;47.352;8.164;2023-02-26T04:20:51;-0.30;99.90
76838;DHT22;65797;47.352;8.164;2023-02-26T04:23:17;-0.30;99.90
76838;DHT22;65797;47.352;8.164;2023-02-26T04:25:44;-0.30;99.90
76838;DHT22;65797;47.352;8.164;2023-02-26T04:28:10;-0.30;99.90
76838;DHT22;65797;47.352;8.164;2023-02-26T04:30:35;-0.30;99.90
76838;DHT22;65797;47.352;8.164;2023-02-26T04:33:01;-0.30;99.90
76838;DHT22;65797;47.352;8.164;2023-02-26T04:35:27;-0.30;99.90
76838;DHT22;65797;47.352;8.164;2023-02-26T04:37:52;-0.20;99.90
76838;DHT22;65797;47.352;8.164;2023-02-26T04:40:18;-0.30;99.90
76838;DHT22;65797;47.352;8.164;2023-02-26T04:42:44;-0.30;99.90
76838;DHT22;65797;47.352;8.164;2023-02-26T04:45:09;-0.30;99.90
76838;DHT22;65797;47.352;8.164;2023-02-26T04:47:35;-0.30;99.90
76838;DHT22;65797;47.352;8.164;2023-02-26T04:50:01;-0.20;99.90
76838;DHT22;65797;47.352;8.164;2023-02-26T04:52:27;-0.20;99.90
76838;DHT22;65797;47.352;8.164;2023-02-26T04:54:52;-0.20;99.90
76838;DHT22;65797;47.352;8.164;2023-02-26T04:57:18;-0.20;99.90
76838;DHT22;65797;47.352;8.164;2023-02-26T04:59:44;-0.20;99.90
76838;DHT22;65797;47.352;8.164;2023-02-26T05:02:09;-0.30;99.90
76838;DHT22;65797;47.352;8.164;2023-02-26T05:04:35;-0.20;99.90
76838;DHT22;65797;47.352;8.164;2023-02-26T05:07:01;-0.20;99.90
76838;DHT22;65797;47.352;8.164;2023-02-26T05:09:26;-0.20;99.90
76838;DHT22;65797;47.352;8.164;2023-02-26T05:11:52;-0.20;99.90
76838;DHT22;65797;47.352;8.164;2023-02-26T05:14:18;-0.20;99.90
76838;DHT22;65797;47.352;8.164;2023-02-26T05:16:43;-0.20;99.90
76838;DHT22;65797;47.352;8.164;2023-02-26T05:19:09;-0.30;99.90
76838;DHT22;65797;47.352;8.164;2023-02-26T05:21:35;-0.30;99.90
76838;DHT22;65797;47.352;8.164;2023-02-26T05:24:01;-0.30;99.90
76838;DHT22;65797;47.352;8.164;2023-02-26T05:29:02;-0.20;99.90
76838;DHT22;65797;47.352;8.164;2023-02-26T05:31:28;-0.30;99.90
76838;DHT22;65797;47.352;8.164;2023-02-26T05:33:54;-0.30;99.90
76838;DHT22;65797;47.352;8.164;2023-02-26T05:38:55;-0.30;99.90
76838;DHT22;65797;47.352;8.164;2023-02-26T05:41:20;-0.30;99.90
76838;DHT22;65797;47.352;8.164;2023-02-26T05:43:46;-0.30;99.90
76838;DHT22;65797;47.352;8.164;2023-02-26T05:46:12;-0.40;99.90
76838;DHT22;65797;47.352;8.164;2023-02-26T05:48:38;-0.40;99.90
76838;DHT22;65797;47.352;8.164;2023-02-26T05:53:39;-0.40;99.90
76838;DHT22;65797;47.352;8.164;2023-02-26T05:56:05;-0.40;99.90
76838;DHT22;65797;47.352;8.164;2023-02-26T05:58:31;-0.40;99.90
76838;DHT22;65797;47.352;8.164;2023-02-26T06:00:58;-0.40;99.90
76838;DHT22;65797;47.352;8.164;2023-02-26T06:03:24;-0.50;99.90
76838;DHT22;65797;47.352;8.164;2023-02-26T06:05:50;-0.50;99.90
76838;DHT22;65797;47.352;8.164;2023-02-26T06:08:16;-0.50;99.90
76838;DHT22;65797;47.352;8.164;2023-02-26T06:10:42;-0.50;99.90
76838;DHT22;65797;47.352;8.164;2023-02-26T06:13:08;-0.50;99.90
76838;DHT22;65797;47.352;8.164;2023-02-26T06:15:33;-0.50;99.90
76838;DHT22;65797;47.352;8.164;2023-02-26T06:17:59;-0.50;99.90
76838;DHT22;65797;47.352;8.164;2023-02-26T06:20:25;-0.50;99.90
76838;DHT22;65797;47.352;8.164;2023-02-26T06:22:50;-0.60;99.90
76838;DHT22;65797;47.352;8.164;2023-02-26T06:25:16;-0.60;99.90
76838;DHT22;65797;47.352;8.164;2023-02-26T06:27:42;-0.60;99.90
76838;DHT22;65797;47.352;8.164;2023-02-26T06:30:08;-0.70;99.90
76838;DHT22;65797;47.352;8.164;2023-02-26T06:35:10;-0.80;99.90
76838;DHT22;65797;47.352;8.164;2023-02-26T06:37:36;-0.70;99.90
76838;DHT22;65797;47.352;8.164;2023-02-26T06:40:02;-0.80;99.90
76838;DHT22;65797;47.352;8.164;2023-02-26T06:42:28;-0.80;99.90
76838;DHT22;65797;47.352;8.164;2023-02-26T06:44:54;-0.70;99.90
76838;DHT22;65797;47.352;8.164;2023-02-26T06:47:22;-0.80;99.90
76838;DHT22;65797;47.352;8.164;2023-02-26T06:49:48;-0.80;99.90
76838;DHT22;65797;47.352;8.164;2023-02-26T06:52:14;-0.80;99.90
76838;DHT22;65797;47.352;8.164;2023-02-26T06:54:39;-0.80;99.90
76838;DHT22;65797;47.352;8.164;2023-02-26T06:57:05;-0.90;99.90
76838;DHT22;65797;47.352;8.164;2023-02-26T06:59:30;-0.80;99.90
76838;DHT22;65797;47.352;8.164;2023-02-26T07:01:56;-0.90;99.90
76838;DHT22;65797;47.352;8.164;2023-02-26T07:04:22;-0.80;99.90
76838;DHT22;65797;47.352;8.164;2023-02-26T07:06:47;-0.80;99.90
76838;DHT22;65797;47.352;8.164;2023-02-26T07:09:13;-0.80;99.90
76838;DHT22;65797;47.352;8.164;2023-02-26T07:11:39;-0.90;99.90
76838;DHT22;65797;47.352;8.164;2023-02-26T07:14:04;-0.90;99.90
76838;DHT22;65797;47.352;8.164;2023-02-26T07:16:30;-0.90;99.90
76838;DHT22;65797;47.352;8.164;2023-02-26T07:18:56;-0.90;99.90
76838;DHT22;65797;47.352;8.164;2023-02-26T07:21:22;-0.90;99.90
76838;DHT22;65797;47.352;8.164;2023-02-26T07:23:47;-1.00;99.90
76838;DHT22;65797;47.352;8.164;2023-02-26T07:26:13;-0.90;99.90
76838;DHT22;65797;47.352;8.164;2023-02-26T07:28:39;-0.90;99.90
76838;DHT22;65797;47.352;8.164;2023-02-26T07:31:05;-0.90;99.90
76838;DHT22;65797;47.352;8.164;2023-02-26T07:33:30;-0.90;99.90
76838;DHT22;65797;47.352;8.164;2023-02-26T07:35:56;-1.00;99.90
76838;DHT22;65797;47.352;8.164;2023-02-26T07:38:22;-1.00;99.90
76838;DHT22;65797;47.352;8.164;2023-02-26T07:40:48;-0.90;99.90
76838;DHT22;65797;47.352;8.164;2023-02-26T07:43:13;-0.80;99.90
76838;DHT22;65797;47.352;8.164;2023-02-26T07:45:39;-0.60;99.90
76838;DHT22;65797;47.352;8.164;2023-02-26T07:48:05;-0.30;99.90
76838;DHT22;65797;47.352;8.164;2023-02-26T07:50:31;-0.50;99.90
76838;DHT22;65797;47.352;8.164;2023-02-26T07:52:58;-0.30;99.90
76838;DHT22;65797;47.352;8.164;2023-02-26T07:55:24;-0.30;99.90
76838;DHT22;65797;47.352;8.164;2023-02-26T07:57:49;-0.10;99.90
76838;DHT22;65797;47.352;8.164;2023-02-26T08:00:16;-0.40;99.90
76838;DHT22;65797;47.352;8.164;2023-02-26T08:02:42;-0.20;99.90
76838;DHT22;65797;47.352;8.164;2023-02-26T08:05:07;-0.50;99.90
76838;DHT22;65797;47.352;8.164;2023-02-26T08:07:33;-0.20;99.90
76838;DHT22;65797;47.352;8.164;2023-02-26T08:09:59;-0.20;99.90
76838;DHT22;65797;47.352;8.164;2023-02-26T08:12:24;-0.20;99.90
76838;DHT22;65797;47.352;8.164;2023-02-26T08:14:50;-0.10;99.90
76838;DHT22;65797;47.352;8.164;2023-02-26T08:17:16;-0.20;99.90
76838;DHT22;65797;47.352;8.164;2023-02-26T08:19:41;-0.20;99.90
76838;DHT22;65797;47.352;8.164;2023-02-26T08:22:07;-0.30;99.90
76838;DHT22;65797;47.352;8.164;2023-02-26T08:24:33;-0.40;99.90
76838;DHT22;65797;47.352;8.164;2023-02-26T08:26:58;-0.50;99.90
76838;DHT22;65797;47.352;8.164;2023-02-26T08:29:24;-0.50;99.90
76838;DHT22;65797;47.352;8.164;2023-02-26T08:31:50;-0.40;99.90
76838;DHT22;65797;47.352;8.164;2023-02-26T08:34:16;-0.40;99.90
76838;DHT22;65797;47.352;8.164;2023-02-26T08:36:42;0.00;99.90
76838;DHT22;65797;47.352;8.164;2023-02-26T08:39:08;0.00;99.90
76838;DHT22;65797;47.352;8.164;2023-02-26T08:41:33;-0.20;99.90
76838;DHT22;65797;47.352;8.164;2023-02-26T08:44:00;-0.30;99.90
76838;DHT22;65797;47.352;8.164;2023-02-26T08:46:27;-0.10;99.90
76838;DHT22;65797;47.352;8.164;2023-02-26T08:48:52;0.40;99.90
76838;DHT22;65797;47.352;8.164;2023-02-26T09:05:31;1.60;99.90
76838;DHT22;65797;47.352;8.164;2023-02-26T09:07:57;1.80;99.90
76838;DHT22;65797;47.352;8.164;2023-02-26T09:10:22;2.10;99.90
76838;DHT22;65797;47.352;8.164;2023-02-26T09:12:48;1.90;99.90
76838;DHT22;65797;47.352;8.164;2023-02-26T09:15:14;1.90;99.90
76838;DHT22;65797;47.352;8.164;2023-02-26T09:17:40;1.70;99.90
76838;DHT22;65797;47.352;8.164;2023-02-26T09:20:07;2.10;99.90
76838;DHT22;65797;47.352;8.164;2023-02-26T09:22:34;2.50;99.90
76838;DHT22;65797;47.352;8.164;2023-02-26T09:25:00;2.50;99.90
76838;DHT22;65797;47.352;8.164;2023-02-26T09:27:25;2.40;99.90
76838;DHT22;65797;47.352;8.164;2023-02-26T09:29:51;2.80;99.90
76838;DHT22;65797;47.352;8.164;2023-02-26T09:32:17;2.80;99.90
76838;DHT22;65797;47.352;8.164;2023-02-26T09:34:43;2.70;99.90
76838;DHT22;65797;47.352;8.164;2023-02-26T09:37:09;3.00;99.90
76838;DHT22;65797;47.352;8.164;2023-02-26T09:39:35;2.70;99.90
76838;DHT22;65797;47.352;8.164;2023-02-26T09:44:47;2.30;99.90
76838;DHT22;65797;47.352;8.164;2023-02-26T09:47:27;1.80;99.50
76838;DHT22;65797;47.352;8.164;2023-02-26T09:50:03;1.30;97.20
76838;DHT22;65797;47.352;8.164;2023-02-26T09:52:54;1.00;94.90
76838;DHT22;65797;47.352;8.164;2023-02-26T09:55:30;0.80;92.80
76838;DHT22;65797;47.352;8.164;2023-02-26T09:58:02;0.90;99.90
76838;DHT22;65797;47.352;8.164;2023-02-26T10:00:36;1.00;95.50
76838;DHT22;65797;47.352;8.164;2023-02-26T10:03:10;0.80;94.80
76838;DHT22;65797;47.352;8.164;2023-02-26T10:09:05;1.10;97.40
76838;DHT22;65797;47.352;8.164;2023-02-26T10:11:43;1.00;97.30
76838;DHT22;65797;47.352;8.164;2023-02-26T10:14:27;1.00;96.60
76838;DHT22;65797;47.352;8.164;2023-02-26T10:17:19;1.50;99.70
76838;DHT22;65797;47.352;8.164;2023-02-26T10:19:49;1.50;99.70
76838;DHT22;65797;47.352;8.164;2023-02-26T10:24:47;1.90;99.90
76838;DHT22;65797;47.352;8.164;2023-02-26T10:27:16;1.40;95.10
76838;DHT22;65797;47.352;8.164;2023-02-26T10:30:02;1.40;94.80
76838;DHT22;65797;47.352;8.164;2023-02-26T10:32:44;1.20;95.30
76838;DHT22;65797;47.352;8.164;2023-02-26T10:35:17;1.00;91.90
76838;DHT22;65797;47.352;8.164;2023-02-26T10:40:22;0.80;92.40
76838;DHT22;65797;47.352;8.164;2023-02-26T10:51:13;0.60;92.20
76838;DHT22;65797;47.352;8.164;2023-02-26T10:53:42;0.70;93.80
76838;DHT22;65797;47.352;8.164;2023-02-26T10:56:17;0.30;90.90
76838;DHT22;65797;47.352;8.164;2023-02-26T10:58:45;0.30;91.40
76838;DHT22;65797;47.352;8.164;2023-02-26T11:01:18;0.20;90.60
76838;DHT22;65797;47.352;8.164;2023-02-26T11:03:47;0.30;91.70
76838;DHT22;65797;47.352;8.164;2023-02-26T11:06:21;0.30;92.10
76838;DHT22;65797;47.352;8.164;2023-02-26T11:08:51;0.50;94.30
76838;DHT22;65797;47.352;8.164;2023-02-26T11:11:36;0.70;95.50
76838;DHT22;65797;47.352;8.164;2023-02-26T11:14:03;0.80;97.20
76838;DHT22;65797;47.352;8.164;2023-02-26T11:16:29;0.70;96.40
76838;DHT22;65797;47.352;8.164;2023-02-26T11:18:58;1.00;96.30
76838;DHT22;65797;47.352;8.164;2023-02-26T11:21:29;1.10;97.30
76838;DHT22;65797;47.352;8.164;2023-02-26T11:24:12;1.50;99.90
76838;DHT22;65797;47.352;8.164;2023-02-26T11:26:45;1.50;99.90
76838;DHT22;65797;47.352;8.164;2023-02-26T11:29:17;1.40;99.90
76838;DHT22;65797;47.352;8.164;2023-02-26T11:31:47;1.30;99.90
76838;DHT22;65797;47.352;8.164;2023-02-26T11:34:13;1.30;98.90
76838;DHT22;65797;47.352;8.164;2023-02-26T11:36:41;1.00;94.00
76838;DHT22;65797;47.352;8.164;2023-02-26T11:41:45;1.30;96.40
76838;DHT22;65797;47.352;8.164;2023-02-26T11:44:17;1.20;94.60
76838;DHT22;65797;47.352;8.164;2023-02-26T11:46:55;1.50;96.50
76838;DHT22;65797;47.352;8.164;2023-02-26T11:49:26;1.60;96.90
76838;DHT22;65797;47.352;8.164;2023-02-26T11:54:39;2.10;99.90
76838;DHT22;65797;47.352;8.164;2023-02-26T11:57:14;2.40;99.90
76838;DHT22;65797;47.352;8.164;2023-02-26T11:59:40;2.60;99.90
76838;DHT22;65797;47.352;8.164;2023-02-26T12:02:16;3.20;99.90
76838;DHT22;65797;47.352;8.164;2023-02-26T12:04:45;2.80;99.90
76838;DHT22;65797;47.352;8.164;2023-02-26T12:10:25;3.70;99.90
76838;DHT22;65797;47.352;8.164;2023-02-26T12:24:06;3.00;99.90
76838;DHT22;65797;47.352;8.164;2023-02-26T12:52:02;1.80;93.00
76838;DHT22;65797;47.352;8.164;2023-02-26T13:06:01;2.00;93.20
76838;DHT22;65797;47.352;8.164;2023-02-26T13:08:46;1.80;92.30
76838;DHT22;65797;47.352;8.164;2023-02-26T13:13:58;1.90;93.10
76838;DHT22;65797;47.352;8.164;2023-02-26T13:20:04;1.70;92.70
76838;DHT22;65797;47.352;8.164;2023-02-26T13:24:49;1.70;93.60
76838;DHT22;65797;47.352;8.164;2023-02-26T13:30:12;1.30;92.80
76838;DHT22;65797;47.352;8.164;2023-02-26T13:32:41;1.60;94.50
76838;DHT22;65797;47.352;8.164;2023-02-26T13:35:31;1.50;93.70
76838;DHT22;65797;47.352;8.164;2023-02-26T13:51:04;1.90;95.80
76838;DHT22;65797;47.352;8.164;2023-02-26T13:58:40;1.70;92.20
76838;DHT22;65797;47.352;8.164;2023-02-26T14:06:22;1.90;93.30
76838;DHT22;65797;47.352;8.164;2023-02-26T14:08:52;2.20;95.20
76838;DHT22;65797;47.352;8.164;2023-02-26T14:11:45;2.00;95.60
76838;DHT22;65797;47.352;8.164;2023-02-26T14:14:17;2.00;96.60
76838;DHT22;65797;47.352;8.164;2023-02-26T14:19:32;2.20;99.90
76838;DHT22;65797;47.352;8.164;2023-02-26T14:22:20;2.60;99.90
76838;DHT22;65797;47.352;8.164;2023-02-26T14:35:49;1.50;97.90
76838;DHT22;65797;47.352;8.164;2023-02-26T15:04:47;0.60;99.90
76838;DHT22;65797;47.352;8.164;2023-02-26T15:13:01;0.70;99.90
76838;DHT22;65797;47.352;8.164;2023-02-26T15:23:51;0.80;99.90
76838;DHT22;65797;47.352;8.164;2023-02-26T15:26:23;0.80;99.90
76838;DHT22;65797;47.352;8.164;2023-02-26T15:28:50;0.80;99.90
76838;DHT22;65797;47.352;8.164;2023-02-26T15:31:24;0.80;99.90
76838;DHT22;65797;47.352;8.164;2023-02-26T15:33:55;0.80;99.90
76838;DHT22;65797;47.352;8.164;2023-02-26T15:36:21;0.80;99.90
76838;DHT22;65797;47.352;8.164;2023-02-26T15:38:53;0.80;99.90
76838;DHT22;65797;47.352;8.164;2023-02-26T15:41:20;0.90;99.90
76838;DHT22;65797;47.352;8.164;2023-02-26T15:43:54;0.90;99.90
76838;DHT22;65797;47.352;8.164;2023-02-26T15:46:27;0.90;99.90
76838;DHT22;65797;47.352;8.164;2023-02-26T15:48:59;0.90;99.90
76838;DHT22;65797;47.352;8.164;2023-02-26T15:51:26;0.90;99.90
76838;DHT22;65797;47.352;8.164;2023-02-26T15:53:53;0.90;99.90
76838;DHT22;65797;47.352;8.164;2023-02-26T15:56:25;0.90;99.90
76838;DHT22;65797;47.352;8.164;2023-02-26T15:58:56;0.90;99.90
76838;DHT22;65797;47.352;8.164;2023-02-26T16:01:24;0.90;99.90
76838;DHT22;65797;47.352;8.164;2023-02-26T16:03:54;0.90;99.90
76838;DHT22;65797;47.352;8.164;2023-02-26T16:06:33;0.90;99.90
76838;DHT22;65797;47.352;8.164;2023-02-26T16:09:00;0.90;99.90
76838;DHT22;65797;47.352;8.164;2023-02-26T16:11:32;0.90;99.90
76838;DHT22;65797;47.352;8.164;2023-02-26T16:13:59;0.90;99.90
76838;DHT22;65797;47.352;8.164;2023-02-26T16:16:40;0.90;99.90
76838;DHT22;65797;47.352;8.164;2023-02-26T16:19:10;1.00;99.90
76838;DHT22;65797;47.352;8.164;2023-02-26T16:21:38;0.90;99.90
76838;DHT22;65797;47.352;8.164;2023-02-26T16:24:08;0.90;99.90
76838;DHT22;65797;47.352;8.164;2023-02-26T16:26:48;0.90;99.90
76838;DHT22;65797;47.352;8.164;2023-02-26T16:29:24;0.80;99.90
76838;DHT22;65797;47.352;8.164;2023-02-26T16:31:54;0.80;99.90
76838;DHT22;65797;47.352;8.164;2023-02-26T16:36:55;0.70;99.90
76838;DHT22;65797;47.352;8.164;2023-02-26T16:39:28;0.70;99.90
76838;DHT22;65797;47.352;8.164;2023-02-26T16:42:15;0.70;99.90
76838;DHT22;65797;47.352;8.164;2023-02-26T16:45:24;0.70;99.90
76838;DHT22;65797;47.352;8.164;2023-02-26T16:47:53;0.70;99.90
76838;DHT22;65797;47.352;8.164;2023-02-26T16:50:26;0.70;99.90
76838;DHT22;65797;47.352;8.164;2023-02-26T16:53:10;0.70;99.90
76838;DHT22;65797;47.352;8.164;2023-02-26T16:55:38;0.60;99.90
76838;DHT22;65797;47.352;8.164;2023-02-26T16:58:07;0.50;99.90
76838;DHT22;65797;47.352;8.164;2023-02-26T17:00:37;0.40;99.90
76838;DHT22;65797;47.352;8.164;2023-02-26T17:03:14;0.40;99.90
76838;DHT22;65797;47.352;8.164;2023-02-26T17:06:02;0.40;99.90
76838;DHT22;65797;47.352;8.164;2023-02-26T17:08:45;0.40;99.90
76838;DHT22;65797;47.352;8.164;2023-02-26T17:11:33;0.40;99.90
76838;DHT22;65797;47.352;8.164;2023-02-26T17:14:20;0.40;99.90
76838;DHT22;65797;47.352;8.164;2023-02-26T17:16:48;0.30;99.90
76838;DHT22;65797;47.352;8.164;2023-02-26T17:19:15;0.40;99.90
76838;DHT22;65797;47.352;8.164;2023-02-26T17:21:47;0.40;99.90
76838;DHT22;65797;47.352;8.164;2023-02-26T17:24:20;0.30;99.90
76838;DHT22;65797;47.352;8.164;2023-02-26T17:26:48;0.30;99.90
76838;DHT22;65797;47.352;8.164;2023-02-26T17:29:30;0.30;99.90
76838;DHT22;65797;47.352;8.164;2023-02-26T17:31:56;0.30;99.90
76838;DHT22;65797;47.352;8.164;2023-02-26T17:34:22;0.30;99.90
76838;DHT22;65797;47.352;8.164;2023-02-26T17:36:48;0.30;99.90
76838;DHT22;65797;47.352;8.164;2023-02-26T17:39:14;0.30;99.90
76838;DHT22;65797;47.352;8.164;2023-02-26T17:41:44;0.40;99.90
76838;DHT22;65797;47.352;8.164;2023-02-26T17:44:10;0.40;99.90
76838;DHT22;65797;47.352;8.164;2023-02-26T17:46:36;0.30;99.90
76838;DHT22;65797;47.352;8.164;2023-02-26T17:49:02;0.30;99.90
76838;DHT22;65797;47.352;8.164;2023-02-26T17:51:28;0.30;99.90
76838;DHT22;65797;47.352;8.164;2023-02-26T17:53:53;0.30;99.90
76838;DHT22;65797;47.352;8.164;2023-02-26T17:56:25;0.30;99.90
76838;DHT22;65797;47.352;8.164;2023-02-26T17:58:54;0.30;99.90
76838;DHT22;65797;47.352;8.164;2023-02-26T18:01:20;0.30;99.90
76838;DHT22;65797;47.352;8.164;2023-02-26T18:03:48;0.30;99.90
76838;DHT22;65797;47.352;8.164;2023-02-26T18:06:14;0.30;99.90
76838;DHT22;65797;47.352;8.164;2023-02-26T18:08:40;0.20;99.90
76838;DHT22;65797;47.352;8.164;2023-02-26T18:11:08;0.30;99.90
76838;DHT22;65797;47.352;8.164;2023-02-26T18:13:36;0.20;99.90
76838;DHT22;65797;47.352;8.164;2023-02-26T18:16:03;0.20;99.90
76838;DHT22;65797;47.352;8.164;2023-02-26T18:18:30;0.20;99.90
76838;DHT22;65797;47.352;8.164;2023-02-26T18:20:56;0.20;99.90
76838;DHT22;65797;47.352;8.164;2023-02-26T18:23:22;0.20;99.90
76838;DHT22;65797;47.352;8.164;2023-02-26T18:25:50;0.20;99.90
76838;DHT22;65797;47.352;8.164;2023-02-26T18:28:23;0.20;99.90
76838;DHT22;65797;47.352;8.164;2023-02-26T18:30:49;0.20;99.90
76838;DHT22;65797;47.352;8.164;2023-02-26T18:33:17;0.20;99.90
76838;DHT22;65797;47.352;8.164;2023-02-26T18:35:49;0.20;99.90
76838;DHT22;65797;47.352;8.164;2023-02-26T18:38:20;0.10;99.90
76838;DHT22;65797;47.352;8.164;2023-02-26T18:40:47;0.10;99.90
76838;DHT22;65797;47.352;8.164;2023-02-26T18:43:13;0.20;99.90
76838;DHT22;65797;47.352;8.164;2023-02-26T18:45:44;0.10;99.90
76838;DHT22;65797;47.352;8.164;2023-02-26T18:48:12;0.10;99.90
76838;DHT22;65797;47.352;8.164;2023-02-26T18:50:38;0.10;99.90
76838;DHT22;65797;47.352;8.164;2023-02-26T18:53:04;0.10;99.90
76838;DHT22;65797;47.352;8.164;2023-02-26T18:55:29;0.10;99.90
76838;DHT22;65797;47.352;8.164;2023-02-26T18:57:55;0.10;99.90
76838;DHT22;65797;47.352;8.164;2023-02-26T19:00:22;0.10;99.90
76838;DHT22;65797;47.352;8.164;2023-02-26T19:02:48;0.10;99.90
76838;DHT22;65797;47.352;8.164;2023-02-26T19:05:14;0.10;99.90
76838;DHT22;65797;47.352;8.164;2023-02-26T19:07:41;0.10;99.90
76838;DHT22;65797;47.352;8.164;2023-02-26T19:10:09;0.00;99.90
76838;DHT22;65797;47.352;8.164;2023-02-26T19:12:37;0.00;99.90
76838;DHT22;65797;47.352;8.164;2023-02-26T19:15:04;0.00;99.90
76838;DHT22;65797;47.352;8.164;2023-02-26T19:17:30;0.00;99.90
76838;DHT22;65797;47.352;8.164;2023-02-26T19:19:56;0.00;99.90
76838;DHT22;65797;47.352;8.164;2023-02-26T19:22:21;0.00;99.90
76838;DHT22;65797;47.352;8.164;2023-02-26T19:24:47;0.00;99.90
76838;DHT22;65797;47.352;8.164;2023-02-26T19:27:13;0.00;99.90
76838;DHT22;65797;47.352;8.164;2023-02-26T19:29:39;0.00;99.90
76838;DHT22;65797;47.352;8.164;2023-02-26T19:32:07;0.00;99.90
76838;DHT22;65797;47.352;8.164;2023-02-26T19:34:32;0.00;99.90
76838;DHT22;65797;47.352;8.164;2023-02-26T19:36:59;0.00;99.90
76838;DHT22;65797;47.352;8.164;2023-02-26T19:39:25;0.00;99.90
76838;DHT22;65797;47.352;8.164;2023-02-26T19:41:52;-0.10;99.90